createdAt,value
2023-02-13T00:01:27.327Z,17.40
2023-02-13T00:03:55.623Z,16.40
2023-02-13T00:06:24.628Z,16.87
2023-02-13T00:08:52.954Z,17.33
2023-02-13T00:11:21.632Z,17.70
2023-02-13T00:13:49.915Z,17.80
2023-02-13T00:16:19.587Z,16.10
2023-02-13T00:18:47.859Z,15.40
2023-02-13T00:21:16.137Z,14.13
2023-02-13T00:23:44.354Z,14.50
2023-02-13T00:26:15.390Z,13.80
2023-02-13T00:28:44.023Z,13.57
2023-02-13T00:31:15.151Z,15.50
2023-02-13T00:33:45.116Z,14.40
2023-02-13T00:36:17.936Z,13.90
2023-02-13T00:38:46.575Z,12.67
2023-02-13T00:41:16.668Z,13.43
2023-02-13T00:43:45.422Z,12.97
2023-02-13T00:46:13.869Z,13.40
2023-02-13T00:48:44.174Z,13.60
2023-02-13T00:51:13.203Z,13.70
2023-02-13T00:53:41.501Z,13.20
2023-02-13T00:56:09.933Z,14.73
2023-02-13T00:58:38.985Z,13.93
2023-02-13T01:01:07.498Z,14.27
2023-02-13T01:03:36.112Z,13.87
2023-02-13T01:06:07.030Z,13.70
2023-02-13T01:08:35.844Z,13.27
2023-02-13T01:11:04.154Z,13.50
2023-02-13T01:13:32.455Z,14.67
2023-02-13T01:16:01.412Z,12.43
2023-02-13T01:18:30.145Z,13.97
2023-02-13T01:21:01.800Z,14.87
2023-02-13T01:23:37.407Z,14.70
2023-02-13T01:26:07.892Z,13.67
2023-02-13T01:28:36.737Z,12.77
2023-02-13T01:31:05.221Z,12.53
2023-02-13T01:33:34.641Z,13.63
2023-02-13T01:36:09.003Z,13.00
2023-02-13T01:38:38.775Z,12.90
2023-02-13T01:41:07.513Z,12.50
2023-02-13T01:43:51.352Z,13.00
2023-02-13T01:46:25.960Z,12.40
2023-02-13T01:49:07.122Z,13.87
2023-02-13T01:51:37.371Z,15.23
2023-02-13T01:54:10.428Z,16.23
2023-02-13T01:56:45.189Z,14.80
2023-02-13T01:59:16.434Z,15.53
2023-02-13T02:01:45.425Z,17.20
2023-02-13T02:04:18.118Z,15.93
2023-02-13T02:06:53.323Z,14.33
2023-02-13T02:09:40.621Z,16.53
2023-02-13T02:12:18.939Z,14.13
2023-02-13T02:14:47.236Z,13.70
2023-02-13T02:17:15.635Z,13.43
2023-02-13T02:19:50.827Z,12.70
2023-02-13T02:22:53.718Z,12.90
2023-02-13T02:26:38.810Z,11.57
2023-02-13T02:29:30.739Z,13.90
2023-02-13T02:32:33.130Z,13.03
2023-02-13T02:35:18.279Z,12.80
2023-02-13T02:38:04.938Z,15.47
2023-02-13T02:40:44.857Z,10.70
2023-02-13T02:43:31.561Z,11.23
2023-02-13T02:46:10.108Z,12.07
2023-02-13T02:49:07.918Z,10.57
2023-02-13T02:51:47.775Z,11.63
2023-02-13T02:54:41.334Z,12.30
2023-02-13T02:57:15.317Z,14.80
2023-02-13T03:00:02.647Z,13.40
2023-02-13T03:02:49.385Z,10.93
2023-02-13T03:05:40.530Z,11.60
2023-02-13T03:08:09.273Z,13.10
2023-02-13T03:10:57.275Z,12.10
2023-02-13T03:13:42.422Z,12.23
2023-02-13T03:16:34.859Z,12.23
2023-02-13T03:19:20.548Z,10.63
2023-02-13T03:22:15.543Z,13.83
2023-02-13T03:24:59.790Z,12.70
2023-02-13T03:27:59.811Z,12.77
2023-02-13T03:30:41.810Z,12.97
2023-02-13T03:33:25.292Z,11.80
2023-02-13T03:36:21.099Z,14.33
2023-02-13T03:38:58.566Z,13.13
2023-02-13T03:41:31.923Z,13.23
2023-02-13T03:44:11.040Z,13.37
2023-02-13T03:46:44.098Z,13.77
2023-02-13T03:49:37.419Z,12.07
2023-02-13T03:52:11.523Z,13.03
2023-02-13T03:55:03.364Z,12.77
2023-02-13T03:57:52.701Z,12.10
2023-02-13T04:00:22.993Z,13.73
2023-02-13T04:03:03.217Z,12.70
2023-02-13T04:05:37.047Z,12.80
2023-02-13T04:08:06.046Z,13.17
2023-02-13T04:10:40.525Z,14.93
2023-02-13T04:13:17.603Z,13.53
2023-02-13T04:15:53.764Z,12.40
2023-02-13T04:18:25.957Z,12.97
2023-02-13T04:20:54.622Z,13.53
2023-02-13T04:23:22.889Z,12.27
2023-02-13T04:25:55.560Z,12.77
2023-02-13T04:28:23.990Z,11.23
2023-02-13T04:30:52.345Z,12.20
2023-02-13T04:33:20.716Z,12.20
2023-02-13T04:35:48.950Z,13.73
2023-02-13T04:38:17.185Z,13.27
2023-02-13T04:40:45.473Z,13.33
2023-02-13T04:43:15.127Z,14.53
2023-02-13T04:45:43.383Z,14.00
2023-02-13T04:48:11.662Z,13.80
2023-02-13T04:50:39.922Z,14.10
2023-02-13T04:53:08.313Z,13.67
2023-02-13T04:55:36.786Z,14.00
2023-02-13T04:58:05.079Z,14.83
2023-02-13T05:00:34.669Z,13.73
2023-02-13T05:03:07.224Z,14.97
2023-02-13T05:05:35.980Z,14.83
2023-02-13T05:08:04.636Z,14.50
2023-02-13T05:10:33.006Z,14.30
2023-02-13T05:13:01.313Z,13.87
2023-02-13T05:15:29.757Z,14.30
2023-02-13T05:17:59.406Z,14.83
2023-02-13T05:20:27.653Z,14.87
2023-02-13T05:23:13.884Z,14.43
2023-02-13T05:25:43.285Z,12.27
2023-02-13T05:28:32.613Z,13.17
2023-02-13T05:31:00.317Z,12.10
2023-02-13T05:33:30.291Z,14.50
2023-02-13T05:35:58.592Z,13.10
2023-02-13T05:38:26.830Z,13.50
2023-02-13T05:40:55.590Z,12.83
2023-02-13T05:43:24.114Z,12.80
2023-02-13T05:45:52.861Z,12.40
2023-02-13T05:48:21.123Z,13.83
2023-02-13T05:50:50.730Z,13.60
2023-02-13T05:53:18.966Z,14.13
2023-02-13T05:55:48.196Z,12.87
2023-02-13T05:58:16.387Z,12.93
2023-02-13T06:00:44.631Z,13.10
2023-02-13T06:03:12.855Z,13.10
2023-02-13T06:05:41.266Z,13.20
2023-02-13T06:08:10.848Z,12.87
2023-02-13T06:10:39.337Z,14.50
2023-02-13T06:13:07.573Z,12.37
2023-02-13T06:15:35.875Z,16.20
2023-02-13T06:18:04.169Z,15.40
2023-02-13T06:20:32.504Z,12.20
2023-02-13T06:23:00.877Z,12.30
2023-02-13T06:25:30.799Z,13.30
2023-02-13T06:27:59.048Z,14.70
2023-02-13T06:30:27.445Z,13.77
2023-02-13T06:32:55.720Z,12.70
2023-02-13T06:35:24.099Z,13.13
2023-02-13T06:37:52.568Z,12.17
2023-02-13T06:40:21.320Z,14.03
2023-02-13T06:42:50.977Z,14.10
2023-02-13T06:45:19.513Z,13.07
2023-02-13T06:47:50.287Z,16.13
2023-02-13T06:50:19.386Z,13.73
2023-02-13T06:52:48.795Z,14.90
2023-02-13T06:55:17.804Z,13.60
2023-02-13T06:57:46.787Z,13.20
2023-02-13T07:00:19.285Z,13.90
2023-02-13T07:02:48.674Z,12.43
2023-02-13T07:05:16.991Z,10.90
2023-02-13T07:07:45.347Z,11.13
2023-02-13T07:10:15.559Z,11.97
2023-02-13T07:12:45.801Z,14.03
2023-02-13T07:15:19.165Z,10.97
2023-02-13T07:17:47.403Z,11.63
2023-02-13T07:20:15.759Z,12.40
2023-02-13T07:22:43.991Z,10.63
2023-02-13T07:25:12.235Z,10.43
2023-02-13T07:27:41.638Z,11.37
2023-02-13T07:30:11.207Z,11.93
2023-02-13T07:32:40.831Z,10.60
2023-02-13T07:35:09.419Z,15.50
2023-02-13T07:37:37.680Z,11.93
2023-02-13T07:40:07.501Z,10.93
2023-02-13T07:42:36.187Z,10.60
2023-02-13T07:45:07.550Z,10.77
2023-02-13T07:47:36.058Z,11.37
2023-02-13T07:50:06.966Z,11.30
2023-02-13T07:52:37.132Z,10.83
2023-02-13T07:55:05.967Z,10.53
2023-02-13T07:57:35.147Z,9.50
2023-02-13T08:00:04.419Z,9.83
2023-02-13T08:02:32.745Z,10.77
2023-02-13T08:05:01.047Z,10.50
2023-02-13T08:07:31.547Z,10.37
2023-02-13T08:10:17.217Z,11.30
2023-02-13T08:12:45.974Z,12.00
2023-02-13T08:15:16.312Z,13.53
2023-02-13T08:17:44.648Z,11.50
2023-02-13T08:20:13.525Z,9.90
2023-02-13T08:22:43.219Z,10.83
2023-02-13T08:25:11.683Z,10.10
2023-02-13T08:27:40.455Z,14.53
2023-02-13T08:30:11.616Z,22.37
2023-02-13T08:32:53.520Z,11.63
2023-02-13T08:35:26.610Z,19.27
2023-02-13T08:37:56.345Z,15.83
2023-02-13T08:40:25.981Z,29.60
2023-02-13T08:42:55.864Z,15.20
2023-02-13T08:45:25.197Z,27.90
2023-02-13T08:47:57.176Z,14.23
2023-02-13T08:50:25.920Z,13.43
2023-02-13T08:52:55.714Z,13.30
2023-02-13T08:55:24.075Z,12.30
2023-02-13T08:57:52.365Z,13.87
2023-02-13T09:00:22.147Z,13.30
2023-02-13T09:02:50.463Z,12.87
2023-02-13T09:05:18.918Z,14.37
2023-02-13T09:07:47.285Z,12.60
2023-02-13T09:10:17.189Z,13.63
2023-02-13T09:12:45.462Z,14.53
2023-02-13T09:15:13.777Z,13.67
2023-02-13T09:17:42.039Z,14.13
2023-02-13T09:20:12.714Z,13.37
2023-02-13T09:22:41.163Z,13.30
2023-02-13T09:25:10.392Z,14.13
2023-02-13T09:27:40.204Z,13.07
2023-02-13T09:30:10.413Z,13.27
2023-02-13T09:32:38.891Z,13.80
2023-02-13T09:35:07.555Z,15.03
2023-02-13T09:37:35.896Z,14.17
2023-02-13T09:40:04.286Z,14.67
2023-02-13T09:42:36.912Z,15.70
2023-02-13T09:45:10.021Z,15.90
2023-02-13T09:47:41.409Z,15.87
2023-02-13T09:50:18.800Z,16.83
2023-02-13T09:52:48.152Z,15.23
2023-02-13T09:55:18.890Z,16.73
2023-02-13T09:57:54.552Z,16.73
2023-02-13T10:00:30.895Z,17.10
2023-02-13T10:03:20.373Z,17.57
2023-02-13T10:05:58.244Z,21.17
2023-02-13T10:08:59.218Z,19.43
2023-02-13T10:12:02.377Z,18.30
2023-02-13T10:14:38.528Z,18.47
2023-02-13T10:17:14.153Z,20.13
2023-02-13T10:19:48.287Z,21.70
2023-02-13T10:22:19.709Z,19.60
2023-02-13T10:24:53.018Z,21.17
2023-02-13T10:27:26.421Z,19.93
2023-02-13T10:30:09.635Z,19.03
2023-02-13T10:32:47.951Z,17.73
2023-02-13T10:35:25.559Z,18.97
2023-02-13T10:37:57.837Z,18.50
2023-02-13T10:40:33.605Z,18.53
2023-02-13T10:43:10.029Z,17.53
2023-02-13T10:45:56.407Z,18.87
2023-02-13T10:48:44.426Z,19.57
2023-02-13T10:51:21.052Z,19.90
2023-02-13T10:54:12.616Z,17.93
2023-02-13T10:56:48.434Z,18.50
2023-02-13T10:59:38.828Z,17.93
2023-02-13T11:02:24.167Z,19.67
2023-02-13T11:04:59.954Z,18.53
2023-02-13T11:07:28.839Z,19.33
2023-02-13T11:10:05.316Z,18.80
2023-02-13T11:12:35.764Z,19.20
2023-02-13T11:15:08.338Z,19.87
2023-02-13T11:17:43.121Z,20.13
2023-02-13T11:20:33.946Z,19.63
2023-02-13T11:23:35.997Z,18.83
2023-02-13T11:26:09.168Z,19.07
2023-02-13T11:28:40.201Z,19.50
2023-02-13T11:31:24.049Z,20.23
2023-02-13T11:33:52.570Z,19.63
2023-02-13T11:36:29.144Z,19.10
2023-02-13T11:39:06.033Z,19.70
2023-02-13T11:41:42.135Z,19.63
2023-02-13T11:44:24.279Z,19.40
2023-02-13T11:46:55.191Z,18.33
2023-02-13T11:49:25.956Z,18.77
2023-02-13T11:51:58.121Z,19.90
2023-02-13T11:54:32.561Z,20.80
2023-02-13T11:57:05.291Z,20.03
2023-02-13T11:59:41.728Z,20.00
2023-02-13T12:02:20.037Z,21.27
2023-02-13T12:04:50.644Z,19.50
2023-02-13T12:07:24.404Z,19.93
2023-02-13T12:10:01.959Z,18.90
2023-02-13T12:12:39.466Z,19.33
2023-02-13T12:15:19.563Z,20.87
2023-02-13T12:17:56.059Z,20.27
2023-02-13T12:20:25.339Z,20.73
2023-02-13T12:23:06.037Z,21.30
2023-02-13T12:26:01.168Z,19.60
2023-02-13T12:28:50.373Z,21.20
2023-02-13T12:31:35.837Z,21.87
2023-02-13T12:35:02.951Z,21.70
2023-02-13T12:37:48.538Z,19.07
2023-02-13T12:40:50.663Z,19.43
2023-02-13T12:43:48.117Z,20.30
2023-02-13T12:46:23.972Z,20.00
2023-02-13T12:49:01.787Z,20.67
2023-02-13T12:51:45.038Z,19.93
2023-02-13T12:54:38.010Z,20.00
2023-02-13T12:57:23.983Z,21.83
2023-02-13T13:00:17.554Z,19.83
2023-02-13T13:03:10.735Z,18.47
2023-02-13T13:06:11.439Z,19.73
2023-02-13T13:09:07.978Z,18.60
2023-02-13T13:12:20.467Z,18.60
2023-02-13T13:14:56.827Z,18.80
2023-02-13T13:17:45.290Z,19.37
2023-02-13T13:20:53.459Z,19.07
2023-02-13T13:23:30.712Z,18.87
2023-02-13T13:26:07.845Z,19.23
2023-02-13T13:28:41.976Z,19.83
2023-02-13T13:31:11.736Z,18.97
2023-02-13T13:33:45.486Z,17.87
2023-02-13T13:36:22.993Z,18.77
2023-02-13T13:39:01.616Z,18.03
2023-02-13T13:41:39.484Z,18.13
2023-02-13T13:44:43.065Z,17.90
2023-02-13T13:47:26.361Z,18.57
2023-02-13T13:49:57.076Z,17.50
2023-02-13T13:52:28.618Z,19.10
2023-02-13T13:55:00.517Z,17.80
2023-02-13T13:58:01.813Z,19.30
2023-02-13T14:00:32.714Z,17.90
2023-02-13T14:03:25.585Z,18.47
2023-02-13T14:06:04.857Z,17.53
2023-02-13T14:09:40.733Z,18.87
2023-02-13T14:12:38.901Z,17.13
2023-02-13T14:15:45.969Z,18.03
2023-02-13T14:18:23.110Z,17.97
2023-02-13T14:20:58.565Z,17.83
2023-02-13T14:23:38.623Z,18.33
2023-02-13T14:26:34.848Z,19.40
2023-02-13T14:29:32.891Z,17.57
2023-02-13T14:32:18.377Z,18.70
2023-02-13T14:34:57.884Z,19.47
2023-02-13T14:37:35.266Z,19.00
2023-02-13T14:40:43.323Z,17.27
2023-02-13T14:43:30.802Z,18.20
2023-02-13T14:46:05.376Z,18.73
2023-02-13T14:48:42.682Z,17.60
2023-02-13T14:51:28.593Z,17.00
2023-02-13T14:54:02.693Z,17.80
2023-02-13T14:56:32.849Z,18.20
2023-02-13T14:59:17.819Z,17.93
2023-02-13T15:01:52.995Z,18.17
2023-02-13T15:04:28.042Z,19.10
2023-02-13T15:06:59.041Z,45.83
2023-02-13T15:09:34.485Z,47.47
2023-02-13T15:12:03.109Z,29.33
2023-02-13T15:14:37.401Z,20.33
2023-02-13T15:17:12.050Z,19.33
2023-02-13T15:19:46.369Z,17.57
2023-02-13T15:22:21.595Z,18.67
2023-02-13T15:24:51.474Z,17.33
2023-02-13T15:27:25.389Z,17.93
2023-02-13T15:30:01.590Z,18.03
2023-02-13T15:32:34.193Z,17.57
2023-02-13T15:35:02.445Z,18.07
2023-02-13T15:37:32.307Z,17.20
2023-02-13T15:40:25.292Z,17.53
2023-02-13T15:42:54.596Z,18.10
2023-02-13T15:45:27.608Z,18.30
2023-02-13T15:47:57.063Z,19.83
2023-02-13T15:50:31.232Z,20.70
2023-02-13T15:53:00.196Z,18.83
2023-02-13T15:55:32.170Z,21.70
2023-02-13T15:58:02.363Z,21.87
2023-02-13T16:00:37.194Z,21.87
2023-02-13T16:03:13.068Z,20.93
2023-02-13T16:05:41.795Z,21.03
2023-02-13T16:08:35.314Z,22.53
2023-02-13T16:11:29.157Z,20.80
2023-02-13T16:14:14.350Z,20.47
2023-02-13T16:16:53.169Z,21.50
2023-02-13T16:19:49.891Z,21.33
2023-02-13T16:22:34.384Z,21.73
2023-02-13T16:25:25.093Z,21.00
2023-02-13T16:27:56.541Z,20.23
2023-02-13T16:30:33.441Z,20.60
2023-02-13T16:33:23.945Z,21.40
2023-02-13T16:35:55.189Z,19.67
2023-02-13T16:38:36.122Z,21.33
2023-02-13T16:41:06.939Z,20.10
2023-02-13T16:43:46.659Z,21.03
2023-02-13T16:46:44.454Z,21.43
2023-02-13T16:49:24.816Z,21.60
2023-02-13T16:52:12.472Z,24.10
2023-02-13T16:54:55.854Z,23.13
2023-02-13T16:57:31.334Z,21.57
2023-02-13T17:00:09.731Z,22.97
2023-02-13T17:02:40.008Z,22.10
2023-02-13T17:05:23.145Z,21.97
2023-02-13T17:07:54.631Z,20.20
2023-02-13T17:10:27.334Z,23.00
2023-02-13T17:12:58.286Z,22.50
2023-02-13T17:15:28.825Z,22.10
2023-02-13T17:17:57.171Z,22.27
2023-02-13T17:20:29.842Z,21.77
2023-02-13T17:22:59.751Z,21.07
2023-02-13T17:25:31.467Z,19.90
2023-02-13T17:28:02.465Z,20.20
2023-02-13T17:30:34.118Z,19.67
2023-02-13T17:33:07.613Z,20.73
2023-02-13T17:35:37.570Z,19.00
2023-02-13T17:38:08.348Z,20.20
2023-02-13T17:40:37.042Z,20.37
2023-02-13T17:43:06.463Z,19.10
2023-02-13T17:45:36.186Z,18.80
2023-02-13T17:48:04.979Z,21.30
2023-02-13T17:50:36.802Z,20.90
2023-02-13T17:53:08.553Z,20.73
2023-02-13T17:55:37.375Z,20.70
2023-02-13T17:58:05.741Z,22.53
2023-02-13T18:00:35.567Z,22.17
2023-02-13T18:03:04.555Z,23.20
2023-02-13T18:05:33.254Z,27.17
2023-02-13T18:08:03.198Z,25.80
2023-02-13T18:10:34.291Z,26.03
2023-02-13T18:13:05.061Z,26.23
2023-02-13T18:15:33.685Z,26.93
2023-02-13T18:18:02.261Z,24.53
2023-02-13T18:20:30.553Z,25.50
2023-02-13T18:22:58.847Z,23.87
2023-02-13T18:25:29.202Z,24.47
2023-02-13T18:27:57.452Z,24.13
2023-02-13T18:30:26.211Z,24.07
2023-02-13T18:32:56.671Z,25.70
2023-02-13T18:35:25.260Z,24.30
2023-02-13T18:37:53.530Z,24.70
2023-02-13T18:40:22.512Z,22.53
2023-02-13T18:42:52.465Z,21.87
2023-02-13T18:45:20.949Z,21.80
2023-02-13T18:47:49.202Z,21.77
2023-02-13T18:50:17.589Z,22.33
2023-02-13T18:52:46.717Z,22.83
2023-02-13T18:55:14.944Z,23.53
2023-02-13T18:57:45.380Z,22.87
2023-02-13T19:00:17.299Z,21.87
2023-02-13T19:02:45.634Z,22.33
2023-02-13T19:05:13.955Z,22.93
2023-02-13T19:07:42.241Z,21.80
2023-02-13T19:10:11.414Z,21.90
2023-02-13T19:12:39.711Z,21.73
2023-02-13T19:15:09.533Z,21.07
2023-02-13T19:17:39.804Z,21.73
2023-02-13T19:20:09.879Z,21.63
2023-02-13T19:22:38.231Z,22.93
2023-02-13T19:25:07.173Z,22.20
2023-02-13T19:27:39.032Z,21.50
2023-02-13T19:30:09.655Z,21.80
2023-02-13T19:32:39.418Z,23.60
2023-02-13T19:35:08.537Z,21.40
2023-02-13T19:37:43.886Z,23.23
2023-02-13T19:40:14.228Z,25.20
2023-02-13T19:42:42.631Z,26.27
2023-02-13T19:45:11.635Z,26.30
2023-02-13T19:47:41.298Z,24.10
2023-02-13T19:50:10.937Z,18.47
2023-02-13T19:52:39.365Z,19.77
2023-02-13T19:55:08.307Z,18.03
2023-02-13T19:57:36.619Z,19.47
2023-02-13T20:00:06.072Z,20.17
2023-02-13T20:02:34.307Z,24.00
2023-02-13T20:05:07.021Z,23.60
2023-02-13T20:07:35.321Z,21.57
2023-02-13T20:10:03.599Z,19.87
2023-02-13T20:12:31.846Z,17.50
2023-02-13T20:15:00.153Z,19.10
2023-02-13T20:17:28.424Z,16.23
2023-02-13T20:19:56.844Z,17.90
2023-02-13T20:22:26.553Z,17.50
2023-02-13T20:24:54.845Z,18.33
2023-02-13T20:27:23.137Z,17.13
2023-02-13T20:29:53.303Z,17.20
2023-02-13T20:32:27.376Z,17.00
2023-02-13T20:34:59.874Z,15.80
2023-02-13T20:37:29.796Z,16.70
2023-02-13T20:39:58.072Z,18.07
2023-02-13T20:42:26.352Z,17.80
2023-02-13T20:44:54.804Z,18.23
2023-02-13T20:47:23.050Z,19.33
2023-02-13T20:49:51.327Z,17.83
2023-02-13T20:52:19.605Z,16.10
2023-02-13T20:54:49.288Z,16.40
2023-02-13T20:57:17.549Z,15.70
2023-02-13T20:59:45.950Z,16.50
2023-02-13T21:02:14.408Z,15.77
2023-02-13T21:04:42.766Z,17.07
2023-02-13T21:07:11.193Z,14.90
2023-02-13T21:09:39.732Z,14.63
2023-02-13T21:12:09.416Z,15.37
2023-02-13T21:14:37.817Z,16.03
2023-02-13T21:17:06.081Z,13.93
2023-02-13T21:19:35.223Z,14.57
2023-02-13T21:22:12.202Z,14.47
2023-02-13T21:24:43.090Z,14.40
2023-02-13T21:27:13.044Z,12.97
2023-02-13T21:29:41.359Z,14.17
2023-02-13T21:32:09.753Z,16.10
2023-02-13T21:34:38.142Z,17.97
2023-02-13T21:37:06.425Z,17.37
2023-02-13T21:39:34.660Z,14.53
2023-02-13T21:42:04.449Z,14.33
2023-02-13T21:44:34.060Z,14.93
2023-02-13T21:47:02.364Z,15.10
2023-02-13T21:49:30.668Z,11.33
2023-02-13T21:51:59.009Z,12.47
2023-02-13T21:54:27.446Z,11.43
2023-02-13T21:56:55.732Z,10.73
2023-02-13T21:59:23.939Z,11.13
2023-02-13T22:01:54.761Z,20.63
2023-02-13T22:04:23.189Z,14.17
2023-02-13T22:06:53.544Z,14.60
2023-02-13T22:09:23.065Z,13.20
2023-02-13T22:11:53.984Z,13.77
2023-02-13T22:14:22.638Z,13.00
2023-02-13T22:16:53.493Z,13.73
2023-02-13T22:19:21.905Z,13.50
2023-02-13T22:21:50.195Z,11.60
2023-02-13T22:24:18.459Z,12.53
2023-02-13T22:26:46.832Z,12.30
2023-02-13T22:29:17.790Z,10.80
2023-02-13T22:31:46.345Z,12.27
2023-02-13T22:34:16.419Z,11.23
2023-02-13T22:36:44.682Z,11.83
2023-02-13T22:39:13.366Z,12.57
2023-02-13T22:41:44.482Z,12.13
2023-02-13T22:44:12.738Z,12.53
2023-02-13T22:46:41.014Z,12.90
2023-02-13T22:49:09.352Z,13.07
2023-02-13T22:51:39.051Z,13.10
2023-02-13T22:54:07.569Z,12.93
2023-02-13T22:56:35.929Z,11.93
2023-02-13T22:59:04.595Z,12.40
2023-02-13T23:01:32.845Z,12.50
2023-02-13T23:04:01.233Z,12.20
2023-02-13T23:06:29.620Z,12.23
2023-02-13T23:08:59.378Z,12.73
2023-02-13T23:11:46.794Z,12.93
2023-02-13T23:14:16.332Z,11.57
2023-02-13T23:17:02.558Z,12.43
2023-02-13T23:19:31.137Z,11.53
2023-02-13T23:21:59.686Z,11.37
2023-02-13T23:24:30.544Z,10.87
2023-02-13T23:26:59.084Z,12.13
2023-02-13T23:29:27.821Z,12.73
2023-02-13T23:31:56.208Z,12.10
2023-02-13T23:34:24.586Z,11.90
2023-02-13T23:36:52.876Z,12.47
2023-02-13T23:39:21.544Z,12.00
2023-02-13T23:41:51.224Z,11.17
2023-02-13T23:44:19.705Z,12.13
2023-02-13T23:46:48.105Z,11.83
2023-02-13T23:49:16.610Z,11.87
2023-02-13T23:51:44.893Z,12.60
2023-02-13T23:54:16.673Z,12.47
2023-02-13T23:56:45.644Z,12.57
2023-02-13T23:59:16.746Z,12.77
